createdAt,value
2018-09-18T00:01:06.930Z,13.40
2018-09-18T00:03:35.354Z,10.90
2018-09-18T00:06:03.730Z,17.43
2018-09-18T00:08:32.134Z,8.50
2018-09-18T00:11:00.505Z,5.27
2018-09-18T00:13:28.898Z,11.83
2018-09-18T00:15:57.269Z,12.50
2018-09-18T00:18:25.661Z,5.00
2018-09-18T00:20:54.030Z,23.67
2018-09-18T00:23:22.417Z,8.17
2018-09-18T00:25:50.809Z,8.17
2018-09-18T00:28:19.206Z,15.83
2018-09-18T00:30:47.578Z,16.10
2018-09-18T00:33:15.978Z,13.40
2018-09-18T00:35:44.350Z,5.37
2018-09-18T00:38:12.739Z,5.83
2018-09-18T00:40:41.118Z,10.53
2018-09-18T00:43:09.522Z,14.47
2018-09-18T00:45:37.906Z,6.37
2018-09-18T00:48:06.327Z,16.67
2018-09-18T00:50:34.694Z,8.60
2018-09-18T00:53:03.094Z,11.47
2018-09-18T00:55:31.474Z,7.93
2018-09-18T00:57:59.866Z,9.90
2018-09-18T01:00:28.246Z,16.30
2018-09-18T01:02:56.642Z,11.33
2018-09-18T01:05:25.031Z,18.93
2018-09-18T01:07:53.426Z,15.73
2018-09-18T01:10:21.819Z,12.57
2018-09-18T01:12:50.444Z,14.10
2018-09-18T01:15:18.962Z,11.27
2018-09-18T01:17:47.370Z,6.17
2018-09-18T01:20:15.757Z,9.67
2018-09-18T01:22:44.269Z,15.30
2018-09-18T01:25:12.714Z,9.30
2018-09-18T01:27:41.085Z,7.90
2018-09-18T01:30:09.490Z,8.20
2018-09-18T01:32:37.857Z,9.83
2018-09-18T01:35:06.356Z,13.57
2018-09-18T01:37:34.724Z,20.97
2018-09-18T01:40:03.128Z,10.03
2018-09-18T01:42:31.517Z,18.73
2018-09-18T01:44:59.914Z,8.93
2018-09-18T01:47:28.278Z,8.90
2018-09-18T01:49:56.674Z,5.03
2018-09-18T01:52:25.130Z,10.10
2018-09-18T01:54:53.521Z,6.57
2018-09-18T01:57:21.901Z,17.40
2018-09-18T01:59:51.217Z,8.00
2018-09-18T02:02:19.774Z,6.30
2018-09-18T02:04:48.383Z,14.77
2018-09-18T02:07:16.749Z,6.53
2018-09-18T02:09:45.142Z,8.10
2018-09-18T02:12:13.522Z,10.37
2018-09-18T02:14:41.911Z,5.70
2018-09-18T02:17:10.302Z,5.17
2018-09-18T02:19:38.694Z,9.63
2018-09-18T02:22:07.072Z,17.10
2018-09-18T02:24:35.482Z,6.30
2018-09-18T02:27:03.856Z,15.73
2018-09-18T02:29:32.241Z,12.73
2018-09-18T02:32:00.606Z,14.27
2018-09-18T02:34:28.992Z,6.10
2018-09-18T02:36:57.359Z,9.93
2018-09-18T02:39:25.756Z,5.33
2018-09-18T02:41:54.114Z,7.50
2018-09-18T02:44:22.502Z,8.17
2018-09-18T02:46:50.891Z,20.23
2018-09-18T02:49:19.425Z,9.83
2018-09-18T02:51:47.821Z,27.67
2018-09-18T02:54:16.213Z,8.00
2018-09-18T02:56:44.569Z,6.67
2018-09-18T02:59:12.955Z,8.13
2018-09-18T03:01:41.322Z,5.40
2018-09-18T03:04:09.893Z,12.67
2018-09-18T03:06:38.255Z,8.70
2018-09-18T03:09:08.629Z,10.73
2018-09-18T03:11:36.990Z,9.60
2018-09-18T03:14:05.433Z,10.83
2018-09-18T03:16:33.846Z,9.90
2018-09-18T03:19:02.218Z,14.10
2018-09-18T03:21:30.611Z,16.73
2018-09-18T03:23:59.015Z,15.17
2018-09-18T03:26:27.439Z,18.90
2018-09-18T03:28:55.805Z,14.70
2018-09-18T03:31:24.198Z,9.37
2018-09-18T03:33:52.571Z,24.60
2018-09-18T03:36:20.966Z,15.00
2018-09-18T03:38:49.340Z,11.90
2018-09-18T03:41:17.730Z,6.33
2018-09-18T03:43:46.118Z,41.70
2018-09-18T03:46:14.505Z,11.03
2018-09-18T03:48:42.874Z,6.83
2018-09-18T03:51:11.268Z,6.93
2018-09-18T03:53:39.701Z,5.80
2018-09-18T03:56:08.218Z,17.47
2018-09-18T03:58:36.585Z,30.87
2018-09-18T04:01:04.978Z,10.07
2018-09-18T04:03:33.338Z,6.57
2018-09-18T04:06:01.728Z,9.00
2018-09-18T04:08:30.102Z,13.60
2018-09-18T04:10:58.514Z,16.23
2018-09-18T04:13:26.882Z,11.80
2018-09-18T04:15:55.278Z,30.40
2018-09-18T04:18:25.470Z,23.97
2018-09-18T04:20:53.861Z,18.27
2018-09-18T04:23:22.234Z,19.30
2018-09-18T04:25:50.669Z,11.57
2018-09-18T04:28:19.046Z,13.80
2018-09-18T04:30:47.681Z,10.00
2018-09-18T04:33:16.098Z,8.90
2018-09-18T04:35:44.504Z,37.47
2018-09-18T04:38:12.889Z,28.40
2018-09-18T04:40:41.285Z,37.60
2018-09-18T04:43:09.671Z,63.73
2018-09-18T04:45:38.073Z,55.00
2018-09-18T04:48:06.451Z,59.37
2018-09-18T04:50:34.851Z,41.77
2018-09-18T04:53:03.234Z,40.20
2018-09-18T04:55:31.628Z,26.60
2018-09-18T04:58:00.015Z,26.77
2018-09-18T05:00:28.422Z,31.67
2018-09-18T05:02:56.798Z,22.53
2018-09-18T05:05:25.194Z,20.80
2018-09-18T05:07:53.569Z,12.23
2018-09-18T05:10:21.962Z,12.47
2018-09-18T05:12:50.336Z,26.93
2018-09-18T05:15:18.711Z,15.30
2018-09-18T05:17:47.116Z,16.10
2018-09-18T05:20:15.486Z,13.70
2018-09-18T05:22:43.903Z,24.23
2018-09-18T05:25:12.285Z,27.13
2018-09-18T05:27:40.685Z,18.57
2018-09-18T05:30:09.050Z,23.43
2018-09-18T05:32:37.434Z,28.80
2018-09-18T05:35:05.822Z,29.87
2018-09-18T05:37:34.213Z,26.50
2018-09-18T05:40:02.573Z,23.63
2018-09-18T05:42:30.962Z,25.50
2018-09-18T05:44:59.332Z,26.20
2018-09-18T05:47:27.721Z,38.97
2018-09-18T05:49:56.096Z,30.47
2018-09-18T05:52:24.486Z,14.67
2018-09-18T05:54:52.850Z,29.23
2018-09-18T05:57:21.233Z,18.73
2018-09-18T05:59:49.614Z,19.17
2018-09-18T06:02:18.217Z,35.23
2018-09-18T06:04:46.544Z,20.23
2018-09-18T06:07:14.951Z,32.50
2018-09-18T06:09:43.322Z,23.70
2018-09-18T06:12:11.718Z,23.30
2018-09-18T06:14:40.086Z,41.80
2018-09-18T06:17:08.503Z,35.43
2018-09-18T06:19:36.866Z,37.80
2018-09-18T06:22:05.258Z,32.57
2018-09-18T06:24:33.662Z,62.63
2018-09-18T06:27:02.058Z,34.63
2018-09-18T06:29:30.426Z,31.77
2018-09-18T06:31:59.834Z,52.00
2018-09-18T06:34:28.201Z,28.00
2018-09-18T06:36:56.631Z,36.97
2018-09-18T06:39:24.997Z,27.57
2018-09-18T06:41:53.395Z,33.90
2018-09-18T06:44:21.765Z,42.97
2018-09-18T06:46:50.157Z,31.40
2018-09-18T06:49:18.534Z,15.80
2018-09-18T06:51:47.055Z,40.93
2018-09-18T06:54:15.425Z,32.13
2018-09-18T06:56:43.823Z,33.30
2018-09-18T06:59:12.191Z,24.50
2018-09-18T07:01:40.579Z,44.00
2018-09-18T07:04:08.946Z,10.47
2018-09-18T07:06:37.334Z,17.33
2018-09-18T07:09:07.251Z,15.20
2018-09-18T07:11:35.709Z,11.67
2018-09-18T07:14:04.082Z,19.33
2018-09-18T07:16:32.454Z,17.30
2018-09-18T07:19:00.881Z,17.23
2018-09-18T07:21:29.258Z,20.70
2018-09-18T07:23:57.674Z,16.90
2018-09-18T07:26:26.057Z,13.17
2018-09-18T07:28:54.453Z,20.50
2018-09-18T07:31:22.818Z,14.80
2018-09-18T07:33:51.246Z,20.87
2018-09-18T07:36:19.590Z,12.50
2018-09-18T07:38:47.978Z,25.27
2018-09-18T07:41:16.340Z,16.90
2018-09-18T07:43:44.728Z,11.40
2018-09-18T07:46:13.089Z,14.90
2018-09-18T07:48:41.469Z,24.57
2018-09-18T07:51:10.598Z,12.90
2018-09-18T07:53:39.202Z,14.10
2018-09-18T07:56:07.674Z,13.73
2018-09-18T07:58:36.066Z,16.43
2018-09-18T08:01:04.433Z,8.47
2018-09-18T08:03:32.831Z,11.83
2018-09-18T08:06:01.202Z,10.40
2018-09-18T08:08:29.582Z,23.10
2018-09-18T08:10:57.983Z,15.93
2018-09-18T08:13:26.371Z,11.90
2018-09-18T08:15:54.734Z,10.50
2018-09-18T08:18:23.143Z,8.37
2018-09-18T08:20:51.511Z,9.70
2018-09-18T08:23:19.893Z,8.03
2018-09-18T08:25:48.330Z,8.40
2018-09-18T08:28:16.697Z,17.90
2018-09-18T08:30:45.063Z,15.53
2018-09-18T08:33:13.458Z,7.60
2018-09-18T08:35:41.831Z,17.83
2018-09-18T08:38:10.222Z,13.13
2018-09-18T08:40:38.593Z,11.90
2018-09-18T08:43:06.994Z,13.20
2018-09-18T08:45:35.426Z,17.77
2018-09-18T08:48:03.829Z,15.20
2018-09-18T08:50:32.192Z,8.87
2018-09-18T08:53:00.590Z,17.87
2018-09-18T08:55:28.999Z,8.27
2018-09-18T08:57:57.371Z,15.10
2018-09-18T09:00:25.754Z,15.03
2018-09-18T09:02:54.404Z,30.63
2018-09-18T09:05:22.845Z,10.73
2018-09-18T09:07:51.355Z,14.63
2018-09-18T09:10:19.674Z,17.00
2018-09-18T09:12:48.082Z,10.93
2018-09-18T09:15:16.473Z,13.20
2018-09-18T09:17:44.843Z,18.87
2018-09-18T09:20:13.248Z,12.70
2018-09-18T09:22:41.750Z,15.60
2018-09-18T09:25:10.107Z,10.13
2018-09-18T09:27:38.910Z,17.90
2018-09-18T09:30:07.319Z,10.37
2018-09-18T09:32:35.672Z,14.00
2018-09-18T09:35:04.111Z,5.60
2018-09-18T09:37:32.542Z,9.83
2018-09-18T09:40:00.942Z,8.33
2018-09-18T09:42:29.344Z,8.60
2018-09-18T09:44:57.735Z,18.10
2018-09-18T09:47:26.146Z,7.27
2018-09-18T09:49:54.522Z,21.50
2018-09-18T09:52:22.918Z,7.87
2018-09-18T09:54:51.285Z,32.17
2018-09-18T09:57:19.675Z,9.63
2018-09-18T09:59:48.052Z,10.13
2018-09-18T10:02:22.614Z,12.63
2018-09-18T10:04:50.983Z,9.87
2018-09-18T10:07:19.369Z,8.97
2018-09-18T10:09:47.743Z,9.13
2018-09-18T10:12:16.143Z,14.63
2018-09-18T10:14:44.528Z,14.20
2018-09-18T10:17:12.934Z,6.83
2018-09-18T10:19:41.303Z,6.23
2018-09-18T10:22:09.689Z,19.77
2018-09-18T10:24:38.077Z,6.23
2018-09-18T10:27:08.047Z,5.87
2018-09-18T10:29:36.340Z,6.20
2018-09-18T10:32:04.711Z,4.97
2018-09-18T10:34:33.130Z,4.40
2018-09-18T10:37:01.519Z,11.67
2018-09-18T10:39:29.959Z,5.57
2018-09-18T10:41:58.408Z,8.57
2018-09-18T10:44:26.749Z,5.60
2018-09-18T10:46:55.152Z,4.77
2018-09-18T10:49:23.587Z,9.80
2018-09-18T10:51:52.317Z,8.23
2018-09-18T10:54:20.701Z,4.60
2018-09-18T10:56:49.082Z,11.60
2018-09-18T10:59:17.474Z,4.90
2018-09-18T11:01:45.980Z,7.70
2018-09-18T11:04:14.366Z,4.13
2018-09-18T11:06:43.315Z,12.63
2018-09-18T11:09:12.056Z,7.80
2018-09-18T11:11:41.311Z,7.47
2018-09-18T11:14:11.031Z,4.47
2018-09-18T11:16:39.512Z,6.90
2018-09-18T11:19:08.134Z,6.90
2018-09-18T11:21:36.601Z,4.77
2018-09-18T11:24:05.396Z,5.27
2018-09-18T11:26:34.050Z,4.80
2018-09-18T11:29:02.434Z,6.50
2018-09-18T11:31:30.950Z,6.10
2018-09-18T11:33:59.300Z,12.70
2018-09-18T11:36:28.590Z,5.00
2018-09-18T11:38:57.690Z,4.80
2018-09-18T11:41:26.597Z,4.57
2018-09-18T11:43:54.963Z,5.17
2018-09-18T11:46:23.367Z,5.13
2018-09-18T11:48:51.776Z,5.10
2018-09-18T11:51:20.596Z,5.10
2018-09-18T11:53:48.922Z,5.10
2018-09-18T11:56:17.319Z,11.63
2018-09-18T11:58:45.685Z,5.43
2018-09-18T12:01:14.069Z,10.20
2018-09-18T12:03:42.439Z,17.33
2018-09-18T12:06:10.831Z,5.50
2018-09-18T12:08:39.283Z,5.63
2018-09-18T12:11:07.675Z,5.03
2018-09-18T12:13:36.045Z,14.30
2018-09-18T12:16:04.447Z,11.13
2018-09-18T12:18:32.815Z,16.37
2018-09-18T12:21:01.227Z,13.50
2018-09-18T12:23:29.690Z,9.50
2018-09-18T12:25:58.106Z,5.23
2018-09-18T12:28:26.494Z,9.60
2018-09-18T12:30:54.899Z,5.93
2018-09-18T12:33:23.267Z,8.67
2018-09-18T12:35:51.720Z,6.03
2018-09-18T12:38:20.043Z,10.77
2018-09-18T12:40:48.487Z,7.53
2018-09-18T12:43:16.850Z,7.37
2018-09-18T12:45:45.234Z,7.10
2018-09-18T12:48:13.602Z,7.53
2018-09-18T12:50:42.002Z,9.33
2018-09-18T12:53:10.387Z,9.07
2018-09-18T12:55:38.782Z,6.97
2018-09-18T12:58:07.199Z,9.13
2018-09-18T13:00:35.558Z,6.13
2018-09-18T13:03:03.939Z,7.13
2018-09-18T13:05:32.328Z,7.70
2018-09-18T13:08:00.765Z,6.17
2018-09-18T13:10:29.136Z,11.13
2018-09-18T13:12:57.506Z,22.07
2018-09-18T13:15:25.920Z,7.97
2018-09-18T13:17:54.300Z,9.97
2018-09-18T13:20:22.667Z,6.77
2018-09-18T13:22:51.078Z,6.50
2018-09-18T13:25:19.470Z,5.43
2018-09-18T13:27:47.890Z,5.30
2018-09-18T13:30:16.254Z,4.60
2018-09-18T13:32:44.719Z,7.10
2018-09-18T13:35:13.135Z,4.90
2018-09-18T13:37:42.420Z,4.70
2018-09-18T13:40:10.790Z,6.50
2018-09-18T13:42:39.182Z,4.80
2018-09-18T13:45:07.566Z,4.30
2018-09-18T13:47:35.983Z,6.30
2018-09-18T13:50:04.351Z,5.20
2018-09-18T13:52:32.776Z,7.63
2018-09-18T13:55:01.202Z,14.50
2018-09-18T13:57:29.652Z,4.93
2018-09-18T13:59:58.011Z,7.03
2018-09-18T14:02:26.673Z,4.70
2018-09-18T14:04:56.741Z,6.20
2018-09-18T14:07:25.096Z,10.60
2018-09-18T14:09:53.476Z,11.40
2018-09-18T14:12:21.874Z,4.23
2018-09-18T14:14:50.281Z,3.90
2018-09-18T14:17:18.687Z,7.73
2018-09-18T14:19:47.162Z,8.23
2018-09-18T14:22:15.585Z,6.67
2018-09-18T14:24:43.991Z,21.97
2018-09-18T14:27:12.381Z,4.97
2018-09-18T14:29:40.780Z,12.43
2018-09-18T14:32:09.253Z,5.40
2018-09-18T14:34:37.618Z,4.30
2018-09-18T14:37:06.177Z,8.93
2018-09-18T14:39:34.571Z,4.80
2018-09-18T14:42:02.970Z,4.60
2018-09-18T14:44:31.338Z,6.90
2018-09-18T14:46:59.793Z,9.13
2018-09-18T14:49:28.155Z,8.67
2018-09-18T14:51:56.549Z,5.03
2018-09-18T14:54:24.941Z,10.07
2018-09-18T14:56:53.370Z,6.63
2018-09-18T14:59:21.742Z,4.23
2018-09-18T15:01:50.136Z,5.53
2018-09-18T15:04:18.519Z,9.43
2018-09-18T15:06:46.965Z,4.13
2018-09-18T15:09:15.327Z,7.50
2018-09-18T15:11:44.174Z,9.63
2018-09-18T15:14:12.550Z,7.57
2018-09-18T15:16:40.982Z,3.93
2018-09-18T15:19:09.803Z,13.33
2018-09-18T15:21:38.258Z,4.10
2018-09-18T15:24:06.818Z,4.00
2018-09-18T15:26:35.210Z,7.23
2018-09-18T15:29:03.602Z,4.33
2018-09-18T15:31:31.994Z,10.00
2018-09-18T15:34:00.414Z,3.83
2018-09-18T15:36:28.783Z,4.27
2018-09-18T15:38:57.233Z,16.13
2018-09-18T15:41:25.602Z,10.03
2018-09-18T15:43:53.994Z,5.53
2018-09-18T15:46:22.368Z,14.53
2018-09-18T15:48:50.766Z,6.03
2018-09-18T15:51:19.133Z,4.50
2018-09-18T15:53:47.535Z,4.40
2018-09-18T15:56:15.921Z,10.20
2018-09-18T15:58:44.317Z,12.33
2018-09-18T16:01:12.733Z,10.93
2018-09-18T16:03:41.201Z,12.67
2018-09-18T16:06:09.558Z,14.53
2018-09-18T16:08:37.960Z,15.57
2018-09-18T16:11:06.627Z,8.00
2018-09-18T16:13:35.024Z,10.77
2018-09-18T16:16:03.426Z,12.67
2018-09-18T16:18:31.823Z,7.03
2018-09-18T16:21:00.240Z,4.80
2018-09-18T16:23:28.667Z,8.93
2018-09-18T16:25:57.066Z,4.70
2018-09-18T16:28:25.499Z,11.77
2018-09-18T16:30:53.942Z,10.33
2018-09-18T16:33:22.342Z,4.33
2018-09-18T16:35:50.710Z,4.93
2018-09-18T16:38:19.110Z,20.73
2018-09-18T16:40:47.566Z,5.23
2018-09-18T16:43:15.912Z,9.87
2018-09-18T16:45:44.285Z,11.27
2018-09-18T16:48:12.680Z,6.03
2018-09-18T16:50:41.082Z,11.07
2018-09-18T16:53:09.469Z,6.70
2018-09-18T16:55:37.838Z,9.17
2018-09-18T16:58:06.226Z,5.83
2018-09-18T17:00:34.680Z,4.83
2018-09-18T17:03:03.012Z,13.90
2018-09-18T17:05:31.382Z,14.73
2018-09-18T17:07:59.918Z,12.60
2018-09-18T17:10:28.337Z,6.17
2018-09-18T17:12:56.740Z,6.83
2018-09-18T17:15:25.110Z,16.30
2018-09-18T17:17:53.498Z,6.30
2018-09-18T17:20:21.866Z,5.30
2018-09-18T17:22:50.230Z,4.40
2018-09-18T17:25:18.654Z,5.77
2018-09-18T17:27:47.038Z,15.40
2018-09-18T17:30:15.467Z,7.50
2018-09-18T17:32:43.821Z,4.97
2018-09-18T17:35:12.208Z,8.33
2018-09-18T17:37:40.588Z,7.33
2018-09-18T17:40:08.994Z,7.60
2018-09-18T17:42:37.367Z,18.43
2018-09-18T17:45:06.662Z,13.83
2018-09-18T17:47:35.253Z,8.00
2018-09-18T17:50:03.709Z,30.27
2018-09-18T17:52:32.057Z,14.40
2018-09-18T17:55:00.466Z,15.80
2018-09-18T17:57:28.833Z,9.10
2018-09-18T17:59:57.312Z,11.73
2018-09-18T18:02:25.678Z,11.13
2018-09-18T18:04:54.090Z,12.87
2018-09-18T18:07:22.518Z,26.07
2018-09-18T18:09:50.902Z,14.03
2018-09-18T18:12:19.270Z,12.33
2018-09-18T18:14:47.649Z,22.17
2018-09-18T18:17:16.019Z,15.70
2018-09-18T18:19:44.470Z,15.03
2018-09-18T18:22:12.844Z,14.23
2018-09-18T18:24:41.259Z,16.33
2018-09-18T18:27:09.635Z,15.00
2018-09-18T18:29:38.233Z,11.67
2018-09-18T18:32:06.829Z,14.70
2018-09-18T18:34:35.235Z,16.20
2018-09-18T18:37:03.652Z,13.93
2018-09-18T18:39:32.053Z,26.17
2018-09-18T18:42:00.429Z,27.00
2018-09-18T18:44:29.836Z,16.30
2018-09-18T18:46:58.660Z,12.73
2018-09-18T18:49:28.023Z,12.73
2018-09-18T18:51:56.394Z,14.80
2018-09-18T18:54:24.853Z,11.37
2018-09-18T18:56:53.266Z,18.43
2018-09-18T18:59:21.642Z,18.10
2018-09-18T19:01:50.071Z,14.17
2018-09-18T19:04:18.461Z,13.33
2018-09-18T19:06:46.876Z,9.27
2018-09-18T19:09:15.271Z,14.77
2018-09-18T19:11:43.894Z,15.00
2018-09-18T19:14:12.313Z,12.17
2018-09-18T19:16:40.759Z,14.53
2018-09-18T19:19:09.380Z,20.77
2018-09-18T19:21:37.923Z,30.60
2018-09-18T19:24:06.301Z,16.83
2018-09-18T19:26:34.725Z,19.13
2018-09-18T19:29:03.138Z,16.50
2018-09-18T19:31:31.539Z,14.10
2018-09-18T19:34:00.001Z,14.13
2018-09-18T19:36:28.393Z,14.50
2018-09-18T19:38:56.782Z,15.57
2018-09-18T19:41:25.178Z,11.67
2018-09-18T19:43:53.582Z,20.13
2018-09-18T19:46:22.019Z,14.60
2018-09-18T19:48:50.429Z,14.17
2018-09-18T19:51:18.904Z,19.93
2018-09-18T19:53:47.301Z,17.80
2018-09-18T19:56:15.834Z,16.77
2018-09-18T19:58:44.209Z,15.27
2018-09-18T20:01:12.621Z,18.43
2018-09-18T20:03:40.989Z,15.53
2018-09-18T20:06:10.349Z,26.03
2018-09-18T20:08:38.773Z,14.47
2018-09-18T20:11:07.429Z,22.20
2018-09-18T20:13:35.950Z,14.70
2018-09-18T20:16:04.349Z,21.53
2018-09-18T20:18:32.743Z,27.80
2018-09-18T20:21:01.236Z,17.57
2018-09-18T20:23:29.558Z,16.10
2018-09-18T20:25:58.013Z,16.30
2018-09-18T20:28:26.386Z,12.40
2018-09-18T20:30:54.782Z,29.63
2018-09-18T20:33:23.154Z,30.83
2018-09-18T20:35:51.578Z,26.97
2018-09-18T20:38:19.980Z,25.43
2018-09-18T20:40:48.391Z,11.20
2018-09-18T20:43:16.910Z,23.93
2018-09-18T20:45:45.295Z,18.60
2018-09-18T20:48:13.675Z,27.57
2018-09-18T20:50:42.226Z,16.73
2018-09-18T20:53:10.578Z,12.47
2018-09-18T20:55:38.980Z,10.67
2018-09-18T20:58:07.345Z,15.80
2018-09-18T21:00:35.761Z,18.03
2018-09-18T21:03:04.125Z,7.97
2018-09-18T21:05:32.521Z,16.43
2018-09-18T21:08:00.882Z,11.13
2018-09-18T21:10:29.291Z,7.10
2018-09-18T21:12:57.740Z,12.53
2018-09-18T21:15:26.273Z,12.60
2018-09-18T21:17:54.647Z,28.13
2018-09-18T21:20:23.055Z,7.20
2018-09-18T21:22:51.419Z,12.83
2018-09-18T21:25:23.814Z,17.20
2018-09-18T21:27:52.189Z,17.70
2018-09-18T21:30:20.570Z,12.00
2018-09-18T21:32:48.966Z,16.80
2018-09-18T21:35:17.359Z,13.77
2018-09-18T21:37:45.792Z,11.53
2018-09-18T21:40:14.169Z,11.50
2018-09-18T21:42:42.559Z,10.10
2018-09-18T21:45:10.930Z,11.60
2018-09-18T21:47:39.336Z,13.37
2018-09-18T21:50:07.897Z,23.53
2018-09-18T21:52:36.290Z,13.17
2018-09-18T21:55:04.667Z,18.00
2018-09-18T21:57:33.074Z,12.93
2018-09-18T22:00:01.442Z,14.83
2018-09-18T22:02:29.846Z,16.37
2018-09-18T22:04:58.216Z,10.47
2018-09-18T22:07:26.627Z,13.40
2018-09-18T22:09:55.006Z,15.23
2018-09-18T22:12:23.410Z,15.77
2018-09-18T22:14:51.783Z,8.00
2018-09-18T22:17:20.179Z,17.17
2018-09-18T22:19:48.554Z,10.60
2018-09-18T22:22:17.013Z,22.60
2018-09-18T22:24:45.369Z,10.57
2018-09-18T22:27:13.757Z,27.30
2018-09-18T22:29:42.970Z,9.57
2018-09-18T22:32:11.358Z,11.30
2018-09-18T22:34:39.731Z,18.83
2018-09-18T22:37:08.118Z,7.83
2018-09-18T22:39:36.515Z,9.00
2018-09-18T22:42:04.910Z,11.10
2018-09-18T22:44:33.282Z,14.23
2018-09-18T22:47:01.671Z,10.77
2018-09-18T22:49:30.048Z,10.13
2018-09-18T22:51:58.448Z,17.57
2018-09-18T22:54:26.815Z,9.80
2018-09-18T22:56:55.209Z,8.43
2018-09-18T22:59:23.865Z,16.73
2018-09-18T23:01:52.238Z,29.00
2018-09-18T23:04:20.617Z,32.57
2018-09-18T23:06:49.024Z,21.03
2018-09-18T23:09:17.393Z,14.57
2018-09-18T23:11:45.803Z,19.50
2018-09-18T23:14:14.405Z,26.80
2018-09-18T23:16:43.005Z,15.37
2018-09-18T23:19:11.377Z,21.47
2018-09-18T23:21:39.754Z,14.80
2018-09-18T23:24:08.675Z,19.37
2018-09-18T23:26:37.334Z,21.60
2018-09-18T23:29:05.800Z,11.50
2018-09-18T23:31:34.272Z,19.40
2018-09-18T23:34:02.678Z,20.17
2018-09-18T23:36:31.054Z,18.43
2018-09-18T23:38:59.455Z,17.50
2018-09-18T23:41:27.822Z,26.03
2018-09-18T23:43:56.228Z,31.53
2018-09-18T23:46:24.607Z,12.30
2018-09-18T23:48:53.009Z,17.03
2018-09-18T23:51:21.386Z,19.07
2018-09-18T23:53:49.777Z,24.87
2018-09-18T23:56:18.156Z,21.07
2018-09-18T23:58:46.558Z,21.43
